sensor_id;sensor_type;location;lat;lon;timestamp;P1;durP1;ratioP1;P2;durP2;ratioP2
54883;SDS011;40776;52.880;6.016;2023-07-22T00:02:14;13.57;;;5.47;;
54883;SDS011;40776;52.880;6.016;2023-07-22T00:04:40;12.70;;;5.85;;
54883;SDS011;40776;52.880;6.016;2023-07-22T00:07:06;10.85;;;5.82;;
54883;SDS011;40776;52.880;6.016;2023-07-22T00:09:33;12.82;;;5.68;;
54883;SDS011;40776;52.880;6.016;2023-07-22T00:11:59;12.25;;;5.75;;
54883;SDS011;40776;52.880;6.016;2023-07-22T00:14:25;11.95;;;5.50;;
54883;SDS011;40776;52.880;6.016;2023-07-22T00:16:51;9.20;;;4.65;;
54883;SDS011;40776;52.880;6.016;2023-07-22T00:19:17;11.63;;;5.25;;
54883;SDS011;40776;52.880;6.016;2023-07-22T00:21:43;10.38;;;5.53;;
54883;SDS011;40776;52.880;6.016;2023-07-22T00:24:09;12.55;;;6.07;;
54883;SDS011;40776;52.880;6.016;2023-07-22T00:26:35;10.50;;;5.18;;
54883;SDS011;40776;52.880;6.016;2023-07-22T00:29:04;12.38;;;6.13;;
54883;SDS011;40776;52.880;6.016;2023-07-22T00:31:31;13.57;;;5.32;;
54883;SDS011;40776;52.880;6.016;2023-07-22T00:33:57;11.90;;;5.72;;
54883;SDS011;40776;52.880;6.016;2023-07-22T00:36:23;10.27;;;5.38;;
54883;SDS011;40776;52.880;6.016;2023-07-22T00:38:49;13.20;;;6.40;;
54883;SDS011;40776;52.880;6.016;2023-07-22T00:41:17;10.68;;;5.50;;
54883;SDS011;40776;52.880;6.016;2023-07-22T00:43:44;10.65;;;5.18;;
54883;SDS011;40776;52.880;6.016;2023-07-22T00:46:10;10.57;;;5.72;;
54883;SDS011;40776;52.880;6.016;2023-07-22T00:48:38;10.80;;;5.43;;
54883;SDS011;40776;52.880;6.016;2023-07-22T00:51:04;12.23;;;6.20;;
54883;SDS011;40776;52.880;6.016;2023-07-22T00:53:31;12.85;;;6.93;;
54883;SDS011;40776;52.880;6.016;2023-07-22T00:55:57;13.90;;;5.80;;
54883;SDS011;40776;52.880;6.016;2023-07-22T00:58:23;10.50;;;5.35;;
54883;SDS011;40776;52.880;6.016;2023-07-22T01:00:49;11.25;;;5.68;;
54883;SDS011;40776;52.880;6.016;2023-07-22T01:03:15;11.75;;;6.13;;
54883;SDS011;40776;52.880;6.016;2023-07-22T01:05:43;11.20;;;5.47;;
54883;SDS011;40776;52.880;6.016;2023-07-22T01:08:09;10.48;;;5.15;;
54883;SDS011;40776;52.880;6.016;2023-07-22T01:10:35;10.68;;;6.22;;
54883;SDS011;40776;52.880;6.016;2023-07-22T01:13:01;9.88;;;4.95;;
54883;SDS011;40776;52.880;6.016;2023-07-22T01:15:28;10.63;;;5.30;;
54883;SDS011;40776;52.880;6.016;2023-07-22T01:17:54;10.05;;;5.05;;
54883;SDS011;40776;52.880;6.016;2023-07-22T01:20:21;13.30;;;6.18;;
54883;SDS011;40776;52.880;6.016;2023-07-22T01:22:51;13.13;;;6.30;;
54883;SDS011;40776;52.880;6.016;2023-07-22T01:25:19;11.00;;;5.65;;
54883;SDS011;40776;52.880;6.016;2023-07-22T01:27:47;11.25;;;5.60;;
54883;SDS011;40776;52.880;6.016;2023-07-22T01:30:13;12.43;;;6.30;;
54883;SDS011;40776;52.880;6.016;2023-07-22T01:32:39;10.20;;;6.18;;
54883;SDS011;40776;52.880;6.016;2023-07-22T01:35:06;11.90;;;5.72;;
54883;SDS011;40776;52.880;6.016;2023-07-22T01:37:35;11.45;;;6.60;;
54883;SDS011;40776;52.880;6.016;2023-07-22T01:40:01;12.10;;;5.10;;
54883;SDS011;40776;52.880;6.016;2023-07-22T01:42:37;12.10;;;6.57;;
54883;SDS011;40776;52.880;6.016;2023-07-22T01:45:03;10.73;;;5.82;;
54883;SDS011;40776;52.880;6.016;2023-07-22T01:47:32;14.00;;;6.30;;
54883;SDS011;40776;52.880;6.016;2023-07-22T01:49:59;11.88;;;6.60;;
54883;SDS011;40776;52.880;6.016;2023-07-22T01:52:25;9.82;;;5.30;;
54883;SDS011;40776;52.880;6.016;2023-07-22T01:54:51;13.77;;;6.70;;
54883;SDS011;40776;52.880;6.016;2023-07-22T01:57:17;12.95;;;6.07;;
54883;SDS011;40776;52.880;6.016;2023-07-22T01:59:43;11.43;;;6.07;;
54883;SDS011;40776;52.880;6.016;2023-07-22T02:02:09;11.55;;;6.13;;
54883;SDS011;40776;52.880;6.016;2023-07-22T02:04:35;9.63;;;5.95;;
54883;SDS011;40776;52.880;6.016;2023-07-22T02:07:01;12.52;;;5.78;;
54883;SDS011;40776;52.880;6.016;2023-07-22T02:09:28;13.85;;;6.80;;
54883;SDS011;40776;52.880;6.016;2023-07-22T02:11:54;11.65;;;6.70;;
54883;SDS011;40776;52.880;6.016;2023-07-22T02:14:20;11.13;;;6.43;;
54883;SDS011;40776;52.880;6.016;2023-07-22T02:16:46;13.77;;;6.45;;
54883;SDS011;40776;52.880;6.016;2023-07-22T02:19:12;11.38;;;5.95;;
54883;SDS011;40776;52.880;6.016;2023-07-22T02:21:38;11.90;;;7.00;;
54883;SDS011;40776;52.880;6.016;2023-07-22T02:24:04;13.13;;;6.35;;
54883;SDS011;40776;52.880;6.016;2023-07-22T02:26:30;13.05;;;7.40;;
54883;SDS011;40776;52.880;6.016;2023-07-22T02:28:56;14.60;;;6.65;;
54883;SDS011;40776;52.880;6.016;2023-07-22T02:31:22;11.52;;;6.95;;
54883;SDS011;40776;52.880;6.016;2023-07-22T02:33:49;19.50;;;7.88;;
54883;SDS011;40776;52.880;6.016;2023-07-22T02:36:15;13.07;;;7.45;;
54883;SDS011;40776;52.880;6.016;2023-07-22T02:38:41;14.93;;;7.13;;
54883;SDS011;40776;52.880;6.016;2023-07-22T02:41:07;12.05;;;6.70;;
54883;SDS011;40776;52.880;6.016;2023-07-22T02:43:33;14.18;;;7.97;;
54883;SDS011;40776;52.880;6.016;2023-07-22T02:46:03;14.07;;;6.75;;
54883;SDS011;40776;52.880;6.016;2023-07-22T02:48:31;13.40;;;6.95;;
54883;SDS011;40776;52.880;6.016;2023-07-22T02:51:04;14.85;;;7.75;;
54883;SDS011;40776;52.880;6.016;2023-07-22T02:53:30;14.65;;;6.88;;
54883;SDS011;40776;52.880;6.016;2023-07-22T02:55:56;12.25;;;6.68;;
54883;SDS011;40776;52.880;6.016;2023-07-22T02:58:22;16.23;;;7.13;;
54883;SDS011;40776;52.880;6.016;2023-07-22T03:00:48;13.55;;;7.13;;
54883;SDS011;40776;52.880;6.016;2023-07-22T03:03:14;13.65;;;7.40;;
54883;SDS011;40776;52.880;6.016;2023-07-22T03:05:40;14.02;;;7.47;;
54883;SDS011;40776;52.880;6.016;2023-07-22T03:08:06;13.23;;;7.10;;
54883;SDS011;40776;52.880;6.016;2023-07-22T03:10:32;15.18;;;7.80;;
54883;SDS011;40776;52.880;6.016;2023-07-22T03:12:58;14.77;;;7.35;;
54883;SDS011;40776;52.880;6.016;2023-07-22T03:15:28;12.07;;;6.25;;
54883;SDS011;40776;52.880;6.016;2023-07-22T03:17:54;13.20;;;7.45;;
54883;SDS011;40776;52.880;6.016;2023-07-22T03:20:21;13.15;;;7.50;;
54883;SDS011;40776;52.880;6.016;2023-07-22T03:22:49;14.68;;;7.53;;
54883;SDS011;40776;52.880;6.016;2023-07-22T03:25:15;13.00;;;7.10;;
54883;SDS011;40776;52.880;6.016;2023-07-22T03:27:42;15.52;;;7.60;;
54883;SDS011;40776;52.880;6.016;2023-07-22T03:30:11;18.42;;;8.38;;
54883;SDS011;40776;52.880;6.016;2023-07-22T03:32:44;14.00;;;7.30;;
54883;SDS011;40776;52.880;6.016;2023-07-22T03:35:12;14.80;;;7.97;;
54883;SDS011;40776;52.880;6.016;2023-07-22T03:37:39;15.43;;;7.93;;
54883;SDS011;40776;52.880;6.016;2023-07-22T03:40:05;14.15;;;7.72;;
54883;SDS011;40776;52.880;6.016;2023-07-22T03:42:52;25.48;;;9.68;;
54883;SDS011;40776;52.880;6.016;2023-07-22T03:45:19;14.40;;;7.95;;
54883;SDS011;40776;52.880;6.016;2023-07-22T03:47:45;12.52;;;7.65;;
54883;SDS011;40776;52.880;6.016;2023-07-22T03:50:12;16.95;;;8.27;;
54883;SDS011;40776;52.880;6.016;2023-07-22T03:52:38;15.27;;;8.32;;
54883;SDS011;40776;52.880;6.016;2023-07-22T03:55:04;16.90;;;8.55;;
54883;SDS011;40776;52.880;6.016;2023-07-22T03:57:30;17.00;;;9.50;;
54883;SDS011;40776;52.880;6.016;2023-07-22T03:59:57;15.18;;;8.13;;
54883;SDS011;40776;52.880;6.016;2023-07-22T04:02:23;13.27;;;7.93;;
54883;SDS011;40776;52.880;6.016;2023-07-22T04:04:50;17.20;;;9.10;;
54883;SDS011;40776;52.880;6.016;2023-07-22T04:07:16;14.60;;;8.70;;
54883;SDS011;40776;52.880;6.016;2023-07-22T04:09:43;18.65;;;8.65;;
54883;SDS011;40776;52.880;6.016;2023-07-22T04:12:10;16.13;;;8.85;;
54883;SDS011;40776;52.880;6.016;2023-07-22T04:14:36;17.08;;;9.75;;
54883;SDS011;40776;52.880;6.016;2023-07-22T04:17:02;16.38;;;8.55;;
54883;SDS011;40776;52.880;6.016;2023-07-22T04:19:29;16.75;;;9.50;;
54883;SDS011;40776;52.880;6.016;2023-07-22T04:21:55;16.73;;;8.82;;
54883;SDS011;40776;52.880;6.016;2023-07-22T04:24:21;22.67;;;9.77;;
54883;SDS011;40776;52.880;6.016;2023-07-22T04:26:48;17.58;;;9.02;;
54883;SDS011;40776;52.880;6.016;2023-07-22T04:29:14;18.42;;;9.18;;
54883;SDS011;40776;52.880;6.016;2023-07-22T04:31:40;15.82;;;9.10;;
54883;SDS011;40776;52.880;6.016;2023-07-22T04:34:06;19.65;;;9.85;;
54883;SDS011;40776;52.880;6.016;2023-07-22T04:36:32;17.05;;;8.52;;
54883;SDS011;40776;52.880;6.016;2023-07-22T04:38:58;17.05;;;9.25;;
54883;SDS011;40776;52.880;6.016;2023-07-22T04:41:25;19.83;;;9.30;;
54883;SDS011;40776;52.880;6.016;2023-07-22T04:43:51;21.30;;;9.60;;
54883;SDS011;40776;52.880;6.016;2023-07-22T04:46:17;18.38;;;9.68;;
54883;SDS011;40776;52.880;6.016;2023-07-22T04:48:43;16.65;;;9.70;;
54883;SDS011;40776;52.880;6.016;2023-07-22T04:51:09;19.38;;;9.32;;
54883;SDS011;40776;52.880;6.016;2023-07-22T04:53:35;17.95;;;9.15;;
54883;SDS011;40776;52.880;6.016;2023-07-22T04:56:01;18.27;;;9.40;;
54883;SDS011;40776;52.880;6.016;2023-07-22T04:58:27;16.95;;;9.55;;
54883;SDS011;40776;52.880;6.016;2023-07-22T05:00:53;18.65;;;9.80;;
54883;SDS011;40776;52.880;6.016;2023-07-22T05:03:19;16.83;;;9.77;;
54883;SDS011;40776;52.880;6.016;2023-07-22T05:05:46;18.05;;;9.85;;
54883;SDS011;40776;52.880;6.016;2023-07-22T05:08:12;19.60;;;10.45;;
54883;SDS011;40776;52.880;6.016;2023-07-22T05:10:39;21.73;;;9.90;;
54883;SDS011;40776;52.880;6.016;2023-07-22T05:13:05;21.73;;;9.93;;
54883;SDS011;40776;52.880;6.016;2023-07-22T05:15:31;24.60;;;10.45;;
54883;SDS011;40776;52.880;6.016;2023-07-22T05:17:57;20.10;;;10.75;;
54883;SDS011;40776;52.880;6.016;2023-07-22T05:20:23;19.60;;;10.10;;
54883;SDS011;40776;52.880;6.016;2023-07-22T05:22:49;21.77;;;11.20;;
54883;SDS011;40776;52.880;6.016;2023-07-22T05:25:15;20.73;;;9.95;;
54883;SDS011;40776;52.880;6.016;2023-07-22T05:27:41;19.33;;;10.57;;
54883;SDS011;40776;52.880;6.016;2023-07-22T05:30:07;22.85;;;12.18;;
54883;SDS011;40776;52.880;6.016;2023-07-22T05:32:33;21.55;;;10.23;;
54883;SDS011;40776;52.880;6.016;2023-07-22T05:35:00;18.60;;;9.95;;
54883;SDS011;40776;52.880;6.016;2023-07-22T05:37:27;23.23;;;10.90;;
54883;SDS011;40776;52.880;6.016;2023-07-22T05:39:53;20.77;;;11.07;;
54883;SDS011;40776;52.880;6.016;2023-07-22T05:42:19;23.45;;;11.50;;
54883;SDS011;40776;52.880;6.016;2023-07-22T05:44:45;23.83;;;11.48;;
54883;SDS011;40776;52.880;6.016;2023-07-22T05:47:11;20.90;;;11.73;;
54883;SDS011;40776;52.880;6.016;2023-07-22T05:49:38;24.88;;;11.38;;
54883;SDS011;40776;52.880;6.016;2023-07-22T05:52:04;22.75;;;11.00;;
54883;SDS011;40776;52.880;6.016;2023-07-22T05:54:30;22.63;;;11.20;;
54883;SDS011;40776;52.880;6.016;2023-07-22T05:56:56;20.73;;;10.68;;
54883;SDS011;40776;52.880;6.016;2023-07-22T05:59:22;20.98;;;11.48;;
54883;SDS011;40776;52.880;6.016;2023-07-22T06:01:48;19.80;;;10.18;;
54883;SDS011;40776;52.880;6.016;2023-07-22T06:04:14;19.73;;;10.60;;
54883;SDS011;40776;52.880;6.016;2023-07-22T06:06:40;23.52;;;11.23;;
54883;SDS011;40776;52.880;6.016;2023-07-22T06:09:06;18.30;;;9.90;;
54883;SDS011;40776;52.880;6.016;2023-07-22T06:11:32;15.63;;;9.10;;
54883;SDS011;40776;52.880;6.016;2023-07-22T06:13:58;21.92;;;10.68;;
54883;SDS011;40776;52.880;6.016;2023-07-22T06:16:24;16.85;;;9.48;;
54883;SDS011;40776;52.880;6.016;2023-07-22T06:18:50;17.23;;;9.45;;
54883;SDS011;40776;52.880;6.016;2023-07-22T06:21:16;16.55;;;10.05;;
54883;SDS011;40776;52.880;6.016;2023-07-22T06:23:42;14.35;;;8.60;;
54883;SDS011;40776;52.880;6.016;2023-07-22T06:26:09;18.95;;;10.27;;
54883;SDS011;40776;52.880;6.016;2023-07-22T06:28:35;19.42;;;10.23;;
54883;SDS011;40776;52.880;6.016;2023-07-22T06:31:01;16.55;;;8.45;;
54883;SDS011;40776;52.880;6.016;2023-07-22T06:33:27;14.55;;;8.10;;
54883;SDS011;40776;52.880;6.016;2023-07-22T06:35:53;15.38;;;9.07;;
54883;SDS011;40776;52.880;6.016;2023-07-22T06:38:19;14.95;;;9.38;;
54883;SDS011;40776;52.880;6.016;2023-07-22T06:40:45;17.45;;;9.75;;
54883;SDS011;40776;52.880;6.016;2023-07-22T06:43:11;14.75;;;8.35;;
54883;SDS011;40776;52.880;6.016;2023-07-22T06:45:37;15.05;;;9.10;;
54883;SDS011;40776;52.880;6.016;2023-07-22T06:48:03;16.38;;;8.65;;
54883;SDS011;40776;52.880;6.016;2023-07-22T06:50:29;18.08;;;9.20;;
54883;SDS011;40776;52.880;6.016;2023-07-22T06:52:55;11.57;;;7.25;;
54883;SDS011;40776;52.880;6.016;2023-07-22T06:55:21;12.65;;;7.78;;
54883;SDS011;40776;52.880;6.016;2023-07-22T06:57:48;15.82;;;9.23;;
54883;SDS011;40776;52.880;6.016;2023-07-22T07:00:14;13.55;;;8.40;;
54883;SDS011;40776;52.880;6.016;2023-07-22T07:02:40;15.80;;;9.55;;
54883;SDS011;40776;52.880;6.016;2023-07-22T07:05:07;19.00;;;10.95;;
54883;SDS011;40776;52.880;6.016;2023-07-22T07:07:33;17.75;;;9.43;;
54883;SDS011;40776;52.880;6.016;2023-07-22T07:09:59;20.10;;;10.38;;
54883;SDS011;40776;52.880;6.016;2023-07-22T07:12:25;18.75;;;10.27;;
54883;SDS011;40776;52.880;6.016;2023-07-22T07:14:51;17.13;;;10.88;;
54883;SDS011;40776;52.880;6.016;2023-07-22T07:17:17;22.33;;;11.57;;
54883;SDS011;40776;52.880;6.016;2023-07-22T07:19:43;21.08;;;12.20;;
54883;SDS011;40776;52.880;6.016;2023-07-22T07:22:09;26.10;;;13.52;;
54883;SDS011;40776;52.880;6.016;2023-07-22T07:24:35;27.27;;;13.48;;
54883;SDS011;40776;52.880;6.016;2023-07-22T07:27:01;29.42;;;14.77;;
54883;SDS011;40776;52.880;6.016;2023-07-22T07:29:27;23.23;;;13.65;;
54883;SDS011;40776;52.880;6.016;2023-07-22T07:31:53;29.50;;;15.68;;
54883;SDS011;40776;52.880;6.016;2023-07-22T07:34:19;25.67;;;15.30;;
54883;SDS011;40776;52.880;6.016;2023-07-22T07:36:45;23.85;;;13.88;;
54883;SDS011;40776;52.880;6.016;2023-07-22T07:39:13;25.00;;;13.40;;
54883;SDS011;40776;52.880;6.016;2023-07-22T07:41:39;22.35;;;11.82;;
54883;SDS011;40776;52.880;6.016;2023-07-22T07:44:06;26.63;;;13.55;;
54883;SDS011;40776;52.880;6.016;2023-07-22T07:46:32;20.23;;;12.00;;
54883;SDS011;40776;52.880;6.016;2023-07-22T07:48:59;22.38;;;12.73;;
54883;SDS011;40776;52.880;6.016;2023-07-22T07:51:29;24.73;;;12.50;;
54883;SDS011;40776;52.880;6.016;2023-07-22T07:53:56;20.10;;;12.18;;
54883;SDS011;40776;52.880;6.016;2023-07-22T07:56:23;23.63;;;12.48;;
54883;SDS011;40776;52.880;6.016;2023-07-22T07:58:49;22.90;;;12.85;;
54883;SDS011;40776;52.880;6.016;2023-07-22T08:01:16;27.15;;;14.55;;
54883;SDS011;40776;52.880;6.016;2023-07-22T08:03:42;25.60;;;14.77;;
54883;SDS011;40776;52.880;6.016;2023-07-22T08:06:09;25.13;;;14.63;;
54883;SDS011;40776;52.880;6.016;2023-07-22T08:08:35;24.98;;;14.73;;
54883;SDS011;40776;52.880;6.016;2023-07-22T08:11:02;25.55;;;14.40;;
54883;SDS011;40776;52.880;6.016;2023-07-22T08:13:28;29.67;;;15.55;;
54883;SDS011;40776;52.880;6.016;2023-07-22T08:15:55;26.92;;;14.30;;
54883;SDS011;40776;52.880;6.016;2023-07-22T08:18:21;30.42;;;15.18;;
54883;SDS011;40776;52.880;6.016;2023-07-22T08:20:47;23.15;;;12.90;;
54883;SDS011;40776;52.880;6.016;2023-07-22T08:23:13;20.70;;;12.82;;
54883;SDS011;40776;52.880;6.016;2023-07-22T08:25:40;22.80;;;13.10;;
54883;SDS011;40776;52.880;6.016;2023-07-22T08:28:06;21.60;;;12.18;;
54883;SDS011;40776;52.880;6.016;2023-07-22T08:30:32;22.85;;;13.05;;
54883;SDS011;40776;52.880;6.016;2023-07-22T08:32:58;24.30;;;13.30;;
54883;SDS011;40776;52.880;6.016;2023-07-22T08:35:24;25.80;;;13.38;;
54883;SDS011;40776;52.880;6.016;2023-07-22T08:37:51;25.17;;;12.85;;
54883;SDS011;40776;52.880;6.016;2023-07-22T08:40:18;21.42;;;12.20;;
54883;SDS011;40776;52.880;6.016;2023-07-22T08:42:45;24.52;;;11.77;;
54883;SDS011;40776;52.880;6.016;2023-07-22T08:45:11;22.60;;;11.93;;
54883;SDS011;40776;52.880;6.016;2023-07-22T08:47:43;7.85;;;4.93;;
54883;SDS011;40776;52.880;6.016;2023-07-22T08:50:10;12.38;;;3.80;;
54883;SDS011;40776;52.880;6.016;2023-07-22T08:52:37;6.03;;;3.38;;
54883;SDS011;40776;52.880;6.016;2023-07-22T08:55:03;3.95;;;2.30;;
54883;SDS011;40776;52.880;6.016;2023-07-22T08:57:30;3.83;;;2.50;;
54883;SDS011;40776;52.880;6.016;2023-07-22T08:59:56;3.63;;;2.70;;
54883;SDS011;40776;52.880;6.016;2023-07-22T09:02:23;5.00;;;2.30;;
54883;SDS011;40776;52.880;6.016;2023-07-22T09:04:50;5.00;;;2.25;;
54883;SDS011;40776;52.880;6.016;2023-07-22T09:07:16;3.60;;;2.08;;
54883;SDS011;40776;52.880;6.016;2023-07-22T09:09:42;3.42;;;2.10;;
54883;SDS011;40776;52.880;6.016;2023-07-22T09:12:11;4.28;;;2.15;;
54883;SDS011;40776;52.880;6.016;2023-07-22T09:14:39;4.65;;;2.80;;
54883;SDS011;40776;52.880;6.016;2023-07-22T09:17:05;6.72;;;3.03;;
54883;SDS011;40776;52.880;6.016;2023-07-22T09:19:32;6.18;;;3.60;;
54883;SDS011;40776;52.880;6.016;2023-07-22T09:21:58;4.93;;;3.58;;
54883;SDS011;40776;52.880;6.016;2023-07-22T09:24:24;5.63;;;3.60;;
54883;SDS011;40776;52.880;6.016;2023-07-22T09:26:51;5.55;;;4.15;;
54883;SDS011;40776;52.880;6.016;2023-07-22T09:29:17;7.43;;;4.60;;
54883;SDS011;40776;52.880;6.016;2023-07-22T09:31:50;9.00;;;4.30;;
54883;SDS011;40776;52.880;6.016;2023-07-22T09:34:16;8.65;;;5.15;;
54883;SDS011;40776;52.880;6.016;2023-07-22T09:36:52;7.70;;;4.53;;
54883;SDS011;40776;52.880;6.016;2023-07-22T09:39:18;6.63;;;4.60;;
54883;SDS011;40776;52.880;6.016;2023-07-22T09:41:44;8.32;;;5.20;;
54883;SDS011;40776;52.880;6.016;2023-07-22T09:44:10;13.68;;;6.13;;
54883;SDS011;40776;52.880;6.016;2023-07-22T09:46:39;8.38;;;4.78;;
54883;SDS011;40776;52.880;6.016;2023-07-22T09:49:07;7.80;;;4.85;;
54883;SDS011;40776;52.880;6.016;2023-07-22T09:51:34;8.00;;;4.93;;
54883;SDS011;40776;52.880;6.016;2023-07-22T09:54:01;8.25;;;4.82;;
54883;SDS011;40776;52.880;6.016;2023-07-22T09:56:27;9.07;;;5.47;;
54883;SDS011;40776;52.880;6.016;2023-07-22T09:58:53;9.70;;;4.70;;
54883;SDS011;40776;52.880;6.016;2023-07-22T10:01:21;9.32;;;6.25;;
54883;SDS011;40776;52.880;6.016;2023-07-22T10:03:52;9.75;;;6.20;;
54883;SDS011;40776;52.880;6.016;2023-07-22T10:06:28;10.40;;;6.05;;
54883;SDS011;40776;52.880;6.016;2023-07-22T10:09:00;9.80;;;6.75;;
54883;SDS011;40776;52.880;6.016;2023-07-22T10:11:27;13.48;;;8.38;;
54883;SDS011;40776;52.880;6.016;2023-07-22T10:13:54;14.00;;;7.95;;
54883;SDS011;40776;52.880;6.016;2023-07-22T10:16:21;14.80;;;8.27;;
54883;SDS011;40776;52.880;6.016;2023-07-22T10:18:48;13.90;;;7.60;;
54883;SDS011;40776;52.880;6.016;2023-07-22T10:21:14;15.18;;;8.07;;
54883;SDS011;40776;52.880;6.016;2023-07-22T10:23:40;13.15;;;8.30;;
54883;SDS011;40776;52.880;6.016;2023-07-22T10:26:06;10.73;;;7.32;;
54883;SDS011;40776;52.880;6.016;2023-07-22T10:28:35;10.57;;;7.32;;
54883;SDS011;40776;52.880;6.016;2023-07-22T10:31:02;14.13;;;7.05;;
54883;SDS011;40776;52.880;6.016;2023-07-22T10:33:28;10.55;;;6.40;;
54883;SDS011;40776;52.880;6.016;2023-07-22T10:36:02;12.40;;;7.35;;
54883;SDS011;40776;52.880;6.016;2023-07-22T10:38:29;9.25;;;6.53;;
54883;SDS011;40776;52.880;6.016;2023-07-22T10:40:56;9.65;;;6.90;;
54883;SDS011;40776;52.880;6.016;2023-07-22T10:43:40;8.40;;;5.63;;
54883;SDS011;40776;52.880;6.016;2023-07-22T10:46:08;8.60;;;6.90;;
54883;SDS011;40776;52.880;6.016;2023-07-22T10:48:35;10.75;;;6.35;;
54883;SDS011;40776;52.880;6.016;2023-07-22T10:51:06;11.15;;;7.75;;
54883;SDS011;40776;52.880;6.016;2023-07-22T10:53:32;9.88;;;7.55;;
54883;SDS011;40776;52.880;6.016;2023-07-22T10:58:30;9.57;;;7.40;;
54883;SDS011;40776;52.880;6.016;2023-07-22T11:01:15;12.43;;;8.32;;
54883;SDS011;40776;52.880;6.016;2023-07-22T11:06:33;13.43;;;8.88;;
54883;SDS011;40776;52.880;6.016;2023-07-22T11:09:00;12.90;;;7.85;;
54883;SDS011;40776;52.880;6.016;2023-07-22T11:11:38;14.05;;;8.10;;
54883;SDS011;40776;52.880;6.016;2023-07-22T11:14:17;10.93;;;8.80;;
54883;SDS011;40776;52.880;6.016;2023-07-22T11:16:44;13.63;;;9.23;;
54883;SDS011;40776;52.880;6.016;2023-07-22T11:19:12;11.52;;;8.50;;
54883;SDS011;40776;52.880;6.016;2023-07-22T11:21:38;11.25;;;8.73;;
54883;SDS011;40776;52.880;6.016;2023-07-22T11:24:05;11.65;;;7.47;;
54883;SDS011;40776;52.880;6.016;2023-07-22T11:26:32;17.08;;;9.98;;
54883;SDS011;40776;52.880;6.016;2023-07-22T11:28:59;12.40;;;8.82;;
54883;SDS011;40776;52.880;6.016;2023-07-22T11:31:32;14.50;;;8.48;;
54883;SDS011;40776;52.880;6.016;2023-07-22T11:33:58;12.60;;;9.63;;
54883;SDS011;40776;52.880;6.016;2023-07-22T11:36:25;17.17;;;10.40;;
54883;SDS011;40776;52.880;6.016;2023-07-22T11:38:51;16.48;;;9.63;;
54883;SDS011;40776;52.880;6.016;2023-07-22T11:41:19;13.00;;;9.48;;
54883;SDS011;40776;52.880;6.016;2023-07-22T11:43:46;16.50;;;10.95;;
54883;SDS011;40776;52.880;6.016;2023-07-22T11:46:12;15.63;;;9.82;;
54883;SDS011;40776;52.880;6.016;2023-07-22T11:48:39;17.60;;;10.80;;
54883;SDS011;40776;52.880;6.016;2023-07-22T11:51:06;16.02;;;8.23;;
54883;SDS011;40776;52.880;6.016;2023-07-22T11:53:33;16.00;;;9.43;;
54883;SDS011;40776;52.880;6.016;2023-07-22T11:55:59;15.13;;;10.98;;
54883;SDS011;40776;52.880;6.016;2023-07-22T11:58:25;19.02;;;11.52;;
54883;SDS011;40776;52.880;6.016;2023-07-22T12:01:02;15.18;;;11.40;;
54883;SDS011;40776;52.880;6.016;2023-07-22T12:03:34;18.20;;;11.60;;
54883;SDS011;40776;52.880;6.016;2023-07-22T12:06:01;18.00;;;11.15;;
54883;SDS011;40776;52.880;6.016;2023-07-22T12:08:28;16.42;;;11.30;;
54883;SDS011;40776;52.880;6.016;2023-07-22T12:10:57;17.00;;;11.93;;
54883;SDS011;40776;52.880;6.016;2023-07-22T12:13:24;20.27;;;12.77;;
54883;SDS011;40776;52.880;6.016;2023-07-22T12:16:03;19.27;;;13.68;;
54883;SDS011;40776;52.880;6.016;2023-07-22T12:21:08;15.88;;;12.48;;
54883;SDS011;40776;52.880;6.016;2023-07-22T12:23:35;19.50;;;11.88;;
54883;SDS011;40776;52.880;6.016;2023-07-22T12:26:01;18.00;;;12.30;;
54883;SDS011;40776;52.880;6.016;2023-07-22T12:28:28;20.60;;;13.70;;
54883;SDS011;40776;52.880;6.016;2023-07-22T12:30:54;18.98;;;13.80;;
54883;SDS011;40776;52.880;6.016;2023-07-22T12:33:22;21.52;;;13.95;;
54883;SDS011;40776;52.880;6.016;2023-07-22T12:35:49;22.25;;;13.95;;
54883;SDS011;40776;52.880;6.016;2023-07-22T12:38:15;18.52;;;13.45;;
54883;SDS011;40776;52.880;6.016;2023-07-22T12:40:41;18.73;;;12.25;;
54883;SDS011;40776;52.880;6.016;2023-07-22T12:43:08;14.18;;;10.75;;
54883;SDS011;40776;52.880;6.016;2023-07-22T12:45:34;15.52;;;12.07;;
54883;SDS011;40776;52.880;6.016;2023-07-22T12:48:00;19.40;;;12.88;;
54883;SDS011;40776;52.880;6.016;2023-07-22T12:50:26;21.73;;;14.13;;
54883;SDS011;40776;52.880;6.016;2023-07-22T12:52:52;22.35;;;13.82;;
54883;SDS011;40776;52.880;6.016;2023-07-22T12:55:18;21.10;;;13.98;;
54883;SDS011;40776;52.880;6.016;2023-07-22T12:57:44;16.63;;;13.07;;
54883;SDS011;40776;52.880;6.016;2023-07-22T13:00:11;17.30;;;13.57;;
54883;SDS011;40776;52.880;6.016;2023-07-22T13:02:37;16.77;;;13.38;;
54883;SDS011;40776;52.880;6.016;2023-07-22T13:05:04;20.98;;;12.05;;
54883;SDS011;40776;52.880;6.016;2023-07-22T13:07:31;16.33;;;12.32;;
54883;SDS011;40776;52.880;6.016;2023-07-22T13:09:57;13.95;;;11.45;;
54883;SDS011;40776;52.880;6.016;2023-07-22T13:12:26;15.38;;;11.40;;
54883;SDS011;40776;52.880;6.016;2023-07-22T13:14:52;13.07;;;9.27;;
54883;SDS011;40776;52.880;6.016;2023-07-22T13:17:18;11.48;;;8.75;;
54883;SDS011;40776;52.880;6.016;2023-07-22T13:19:44;13.05;;;8.75;;
54883;SDS011;40776;52.880;6.016;2023-07-22T13:22:09;14.50;;;8.57;;
54883;SDS011;40776;52.880;6.016;2023-07-22T13:24:35;12.57;;;7.40;;
54883;SDS011;40776;52.880;6.016;2023-07-22T13:27:02;9.50;;;6.65;;
54883;SDS011;40776;52.880;6.016;2023-07-22T13:29:29;8.55;;;7.00;;
54883;SDS011;40776;52.880;6.016;2023-07-22T13:31:55;9.32;;;6.63;;
54883;SDS011;40776;52.880;6.016;2023-07-22T13:34:21;8.98;;;5.45;;
54883;SDS011;40776;52.880;6.016;2023-07-22T13:36:47;9.40;;;5.78;;
54883;SDS011;40776;52.880;6.016;2023-07-22T13:39:13;8.60;;;5.28;;
54883;SDS011;40776;52.880;6.016;2023-07-22T13:41:39;11.48;;;5.75;;
54883;SDS011;40776;52.880;6.016;2023-07-22T13:44:05;8.68;;;5.55;;
54883;SDS011;40776;52.880;6.016;2023-07-22T13:46:31;12.43;;;5.75;;
54883;SDS011;40776;52.880;6.016;2023-07-22T13:48:57;7.53;;;4.75;;
54883;SDS011;40776;52.880;6.016;2023-07-22T13:51:23;7.25;;;3.90;;
54883;SDS011;40776;52.880;6.016;2023-07-22T13:53:49;7.05;;;4.20;;
54883;SDS011;40776;52.880;6.016;2023-07-22T13:56:17;6.68;;;2.28;;
54883;SDS011;40776;52.880;6.016;2023-07-22T13:58:43;2.10;;;1.33;;
54883;SDS011;40776;52.880;6.016;2023-07-22T14:01:09;8.63;;;2.10;;
54883;SDS011;40776;52.880;6.016;2023-07-22T14:03:35;4.50;;;1.70;;
54883;SDS011;40776;52.880;6.016;2023-07-22T14:06:01;4.43;;;1.92;;
54883;SDS011;40776;52.880;6.016;2023-07-22T14:08:27;4.35;;;1.95;;
54883;SDS011;40776;52.880;6.016;2023-07-22T14:10:54;7.47;;;2.08;;
54883;SDS011;40776;52.880;6.016;2023-07-22T14:13:20;5.85;;;1.92;;
54883;SDS011;40776;52.880;6.016;2023-07-22T14:15:46;4.00;;;1.58;;
54883;SDS011;40776;52.880;6.016;2023-07-22T14:18:12;4.40;;;2.00;;
54883;SDS011;40776;52.880;6.016;2023-07-22T14:20:42;6.18;;;2.33;;
54883;SDS011;40776;52.880;6.016;2023-07-22T14:23:08;10.65;;;2.60;;
54883;SDS011;40776;52.880;6.016;2023-07-22T14:25:34;5.32;;;1.95;;
54883;SDS011;40776;52.880;6.016;2023-07-22T14:28:00;7.07;;;2.35;;
54883;SDS011;40776;52.880;6.016;2023-07-22T14:30:26;7.30;;;2.50;;
54883;SDS011;40776;52.880;6.016;2023-07-22T14:32:52;6.40;;;2.80;;
54883;SDS011;40776;52.880;6.016;2023-07-22T14:35:18;8.20;;;3.70;;
54883;SDS011;40776;52.880;6.016;2023-07-22T14:37:44;11.43;;;2.70;;
54883;SDS011;40776;52.880;6.016;2023-07-22T14:40:11;6.78;;;2.53;;